sensor_id;sensor_type;location;lat;lon;timestamp;P1;durP1;ratioP1;P2;durP2;ratioP2
36551;SDS011;22559;54.176;12.102;2023-01-04T00:01:06;16.73;;;9.33;;
36551;SDS011;22559;54.176;12.102;2023-01-04T00:03:33;15.13;;;8.37;;
36551;SDS011;22559;54.176;12.102;2023-01-04T00:06:00;13.57;;;8.87;;
36551;SDS011;22559;54.176;12.102;2023-01-04T00:08:27;13.43;;;8.47;;
36551;SDS011;22559;54.176;12.102;2023-01-04T00:11:04;13.47;;;8.97;;
36551;SDS011;22559;54.176;12.102;2023-01-04T00:13:32;12.60;;;8.17;;
36551;SDS011;22559;54.176;12.102;2023-01-04T00:15:58;13.40;;;8.27;;
36551;SDS011;22559;54.176;12.102;2023-01-04T00:18:29;13.47;;;8.77;;
36551;SDS011;22559;54.176;12.102;2023-01-04T00:21:04;12.77;;;8.03;;
36551;SDS011;22559;54.176;12.102;2023-01-04T00:23:41;11.57;;;7.80;;
36551;SDS011;22559;54.176;12.102;2023-01-04T00:26:10;12.53;;;7.90;;
36551;SDS011;22559;54.176;12.102;2023-01-04T00:28:40;13.43;;;7.50;;
36551;SDS011;22559;54.176;12.102;2023-01-04T00:31:07;11.13;;;7.93;;
36551;SDS011;22559;54.176;12.102;2023-01-04T00:33:34;12.50;;;8.03;;
36551;SDS011;22559;54.176;12.102;2023-01-04T00:36:07;13.87;;;7.97;;
36551;SDS011;22559;54.176;12.102;2023-01-04T00:38:34;11.17;;;8.17;;
36551;SDS011;22559;54.176;12.102;2023-01-04T00:41:01;12.67;;;7.90;;
36551;SDS011;22559;54.176;12.102;2023-01-04T00:43:27;12.37;;;7.50;;
36551;SDS011;22559;54.176;12.102;2023-01-04T00:45:53;11.60;;;8.27;;
36551;SDS011;22559;54.176;12.102;2023-01-04T00:48:19;10.73;;;7.77;;
36551;SDS011;22559;54.176;12.102;2023-01-04T00:50:45;11.53;;;8.23;;
36551;SDS011;22559;54.176;12.102;2023-01-04T00:53:13;12.20;;;7.10;;
36551;SDS011;22559;54.176;12.102;2023-01-04T00:55:39;13.10;;;8.10;;
36551;SDS011;22559;54.176;12.102;2023-01-04T00:58:05;13.87;;;7.57;;
36551;SDS011;22559;54.176;12.102;2023-01-04T01:00:31;13.77;;;7.27;;
36551;SDS011;22559;54.176;12.102;2023-01-04T01:02:58;10.93;;;7.33;;
36551;SDS011;22559;54.176;12.102;2023-01-04T01:05:24;11.60;;;7.43;;
36551;SDS011;22559;54.176;12.102;2023-01-04T01:07:50;10.87;;;6.73;;
36551;SDS011;22559;54.176;12.102;2023-01-04T01:10:15;10.87;;;6.83;;
36551;SDS011;22559;54.176;12.102;2023-01-04T01:12:41;10.77;;;6.37;;
36551;SDS011;22559;54.176;12.102;2023-01-04T01:15:07;8.63;;;6.20;;
36551;SDS011;22559;54.176;12.102;2023-01-04T01:17:33;10.83;;;6.97;;
36551;SDS011;22559;54.176;12.102;2023-01-04T01:20:00;9.70;;;7.00;;
36551;SDS011;22559;54.176;12.102;2023-01-04T01:22:25;9.40;;;6.47;;
36551;SDS011;22559;54.176;12.102;2023-01-04T01:24:51;9.90;;;6.47;;
36551;SDS011;22559;54.176;12.102;2023-01-04T01:27:17;6.80;;;5.83;;
36551;SDS011;22559;54.176;12.102;2023-01-04T01:29:42;8.10;;;6.33;;
36551;SDS011;22559;54.176;12.102;2023-01-04T01:32:08;6.03;;;5.13;;
36551;SDS011;22559;54.176;12.102;2023-01-04T01:34:34;8.27;;;5.93;;
36551;SDS011;22559;54.176;12.102;2023-01-04T01:36:59;9.40;;;5.67;;
36551;SDS011;22559;54.176;12.102;2023-01-04T01:39:26;8.13;;;5.80;;
36551;SDS011;22559;54.176;12.102;2023-01-04T01:41:52;9.30;;;5.57;;
36551;SDS011;22559;54.176;12.102;2023-01-04T01:47:06;7.60;;;5.50;;
36551;SDS011;22559;54.176;12.102;2023-01-04T01:49:38;10.30;;;6.17;;
36551;SDS011;22559;54.176;12.102;2023-01-04T01:52:07;7.27;;;5.53;;
36551;SDS011;22559;54.176;12.102;2023-01-04T01:54:42;7.23;;;5.87;;
36551;SDS011;22559;54.176;12.102;2023-01-04T01:57:12;8.23;;;5.50;;
36551;SDS011;22559;54.176;12.102;2023-01-04T01:59:43;4.97;;;4.47;;
36551;SDS011;22559;54.176;12.102;2023-01-04T02:02:12;8.37;;;5.07;;
36551;SDS011;22559;54.176;12.102;2023-01-04T02:04:38;6.90;;;5.17;;
36551;SDS011;22559;54.176;12.102;2023-01-04T02:07:09;6.33;;;5.00;;
36551;SDS011;22559;54.176;12.102;2023-01-04T02:09:36;6.87;;;5.40;;
36551;SDS011;22559;54.176;12.102;2023-01-04T02:12:03;8.10;;;5.13;;
36551;SDS011;22559;54.176;12.102;2023-01-04T02:14:29;8.07;;;5.77;;
36551;SDS011;22559;54.176;12.102;2023-01-04T02:33:36;6.00;;;4.70;;
36551;SDS011;22559;54.176;12.102;2023-01-04T02:36:20;5.70;;;4.67;;
36551;SDS011;22559;54.176;12.102;2023-01-04T02:42:34;8.33;;;4.90;;
36551;SDS011;22559;54.176;12.102;2023-01-04T02:45:57;9.30;;;4.60;;
36551;SDS011;22559;54.176;12.102;2023-01-04T02:48:33;5.53;;;4.30;;
36551;SDS011;22559;54.176;12.102;2023-01-04T02:51:31;4.23;;;3.47;;
36551;SDS011;22559;54.176;12.102;2023-01-04T02:54:03;5.27;;;4.07;;
36551;SDS011;22559;54.176;12.102;2023-01-04T03:11:06;4.37;;;3.97;;
36551;SDS011;22559;54.176;12.102;2023-01-04T03:14:07;5.03;;;3.77;;
36551;SDS011;22559;54.176;12.102;2023-01-04T03:16:41;4.80;;;3.93;;
36551;SDS011;22559;54.176;12.102;2023-01-04T03:19:08;4.20;;;3.50;;
36551;SDS011;22559;54.176;12.102;2023-01-04T03:21:36;4.33;;;3.53;;
36551;SDS011;22559;54.176;12.102;2023-01-04T03:24:06;3.47;;;3.17;;
36551;SDS011;22559;54.176;12.102;2023-01-04T03:26:56;5.67;;;3.70;;
36551;SDS011;22559;54.176;12.102;2023-01-04T03:30:03;5.10;;;3.43;;
36551;SDS011;22559;54.176;12.102;2023-01-04T03:32:52;2.90;;;2.70;;
36551;SDS011;22559;54.176;12.102;2023-01-04T03:36:05;5.30;;;3.20;;
36551;SDS011;22559;54.176;12.102;2023-01-04T03:38:31;3.77;;;3.03;;
36551;SDS011;22559;54.176;12.102;2023-01-04T03:41:43;5.63;;;3.40;;
36551;SDS011;22559;54.176;12.102;2023-01-04T03:44:39;3.83;;;3.50;;
36551;SDS011;22559;54.176;12.102;2023-01-04T03:47:47;4.00;;;3.10;;
36551;SDS011;22559;54.176;12.102;2023-01-04T03:51:14;4.70;;;3.20;;
36551;SDS011;22559;54.176;12.102;2023-01-04T03:53:54;3.43;;;3.10;;
36551;SDS011;22559;54.176;12.102;2023-01-04T03:56:21;4.37;;;2.93;;
36551;SDS011;22559;54.176;12.102;2023-01-04T03:58:49;4.10;;;3.53;;
36551;SDS011;22559;54.176;12.102;2023-01-04T04:01:17;3.40;;;3.10;;
36551;SDS011;22559;54.176;12.102;2023-01-04T04:03:44;3.97;;;3.50;;
36551;SDS011;22559;54.176;12.102;2023-01-04T04:06:29;3.00;;;2.80;;
36551;SDS011;22559;54.176;12.102;2023-01-04T04:09:12;4.40;;;3.27;;
36551;SDS011;22559;54.176;12.102;2023-01-04T04:11:38;3.10;;;2.90;;
36551;SDS011;22559;54.176;12.102;2023-01-04T04:14:04;4.40;;;3.17;;
36551;SDS011;22559;54.176;12.102;2023-01-04T04:16:29;7.00;;;3.20;;
36551;SDS011;22559;54.176;12.102;2023-01-04T04:18:55;3.77;;;3.03;;
36551;SDS011;22559;54.176;12.102;2023-01-04T04:21:21;3.93;;;3.10;;
36551;SDS011;22559;54.176;12.102;2023-01-04T04:23:47;4.00;;;2.60;;
36551;SDS011;22559;54.176;12.102;2023-01-04T04:26:13;3.10;;;2.70;;
36551;SDS011;22559;54.176;12.102;2023-01-04T04:28:38;3.20;;;2.90;;
36551;SDS011;22559;54.176;12.102;2023-01-04T04:31:04;3.47;;;2.67;;
36551;SDS011;22559;54.176;12.102;2023-01-04T04:33:30;6.90;;;3.00;;
36551;SDS011;22559;54.176;12.102;2023-01-04T04:35:56;3.20;;;2.93;;
36551;SDS011;22559;54.176;12.102;2023-01-04T04:38:21;6.37;;;3.00;;
36551;SDS011;22559;54.176;12.102;2023-01-04T04:40:47;6.13;;;3.00;;
36551;SDS011;22559;54.176;12.102;2023-01-04T04:43:32;3.00;;;2.60;;
36551;SDS011;22559;54.176;12.102;2023-01-04T04:45:59;3.53;;;2.80;;
36551;SDS011;22559;54.176;12.102;2023-01-04T04:48:24;6.13;;;3.07;;
36551;SDS011;22559;54.176;12.102;2023-01-04T04:50:50;3.93;;;3.00;;
36551;SDS011;22559;54.176;12.102;2023-01-04T04:53:16;3.83;;;3.53;;
36551;SDS011;22559;54.176;12.102;2023-01-04T04:55:41;3.37;;;3.03;;
36551;SDS011;22559;54.176;12.102;2023-01-04T04:58:07;6.93;;;3.27;;
36551;SDS011;22559;54.176;12.102;2023-01-04T05:00:33;3.33;;;2.73;;
36551;SDS011;22559;54.176;12.102;2023-01-04T05:02:58;5.13;;;3.20;;
36551;SDS011;22559;54.176;12.102;2023-01-04T05:05:25;3.43;;;2.93;;
36551;SDS011;22559;54.176;12.102;2023-01-04T05:07:51;4.30;;;3.20;;
36551;SDS011;22559;54.176;12.102;2023-01-04T05:10:16;5.63;;;3.13;;
36551;SDS011;22559;54.176;12.102;2023-01-04T05:12:42;3.37;;;3.00;;
36551;SDS011;22559;54.176;12.102;2023-01-04T05:15:23;6.70;;;4.17;;
36551;SDS011;22559;54.176;12.102;2023-01-04T05:17:54;3.43;;;3.23;;
36551;SDS011;22559;54.176;12.102;2023-01-04T05:20:19;4.80;;;3.40;;
36551;SDS011;22559;54.176;12.102;2023-01-04T05:22:45;5.90;;;3.93;;
36551;SDS011;22559;54.176;12.102;2023-01-04T05:25:11;6.37;;;3.90;;
36551;SDS011;22559;54.176;12.102;2023-01-04T05:27:36;5.93;;;3.83;;
36551;SDS011;22559;54.176;12.102;2023-01-04T05:30:03;6.33;;;3.73;;
36551;SDS011;22559;54.176;12.102;2023-01-04T05:32:47;6.80;;;3.87;;
36551;SDS011;22559;54.176;12.102;2023-01-04T05:35:13;5.63;;;3.40;;
36551;SDS011;22559;54.176;12.102;2023-01-04T05:37:39;10.07;;;4.43;;
36551;SDS011;22559;54.176;12.102;2023-01-04T05:40:05;7.60;;;4.60;;
36551;SDS011;22559;54.176;12.102;2023-01-04T05:42:30;6.40;;;4.10;;
36551;SDS011;22559;54.176;12.102;2023-01-04T05:44:56;5.60;;;4.00;;
36551;SDS011;22559;54.176;12.102;2023-01-04T05:47:23;7.73;;;3.73;;
36551;SDS011;22559;54.176;12.102;2023-01-04T05:49:50;6.90;;;4.13;;
36551;SDS011;22559;54.176;12.102;2023-01-04T05:52:16;5.03;;;4.60;;
36551;SDS011;22559;54.176;12.102;2023-01-04T05:54:42;6.77;;;3.57;;
36551;SDS011;22559;54.176;12.102;2023-01-04T05:57:08;8.30;;;4.10;;
36551;SDS011;22559;54.176;12.102;2023-01-04T05:59:34;12.47;;;5.60;;
36551;SDS011;22559;54.176;12.102;2023-01-04T06:02:00;7.17;;;4.53;;
36551;SDS011;22559;54.176;12.102;2023-01-04T06:04:26;5.93;;;4.87;;
36551;SDS011;22559;54.176;12.102;2023-01-04T06:06:52;8.03;;;3.73;;
36551;SDS011;22559;54.176;12.102;2023-01-04T06:09:17;8.73;;;4.13;;
36551;SDS011;22559;54.176;12.102;2023-01-04T06:11:43;7.67;;;3.50;;
36551;SDS011;22559;54.176;12.102;2023-01-04T06:14:09;7.57;;;3.70;;
36551;SDS011;22559;54.176;12.102;2023-01-04T06:16:34;7.43;;;4.13;;
36551;SDS011;22559;54.176;12.102;2023-01-04T06:19:00;13.00;;;4.53;;
36551;SDS011;22559;54.176;12.102;2023-01-04T06:21:27;5.83;;;4.13;;
36551;SDS011;22559;54.176;12.102;2023-01-04T06:23:59;9.33;;;4.50;;
36551;SDS011;22559;54.176;12.102;2023-01-04T06:26:25;5.17;;;4.67;;
36551;SDS011;22559;54.176;12.102;2023-01-04T06:28:50;7.37;;;3.80;;
36551;SDS011;22559;54.176;12.102;2023-01-04T06:31:16;6.77;;;4.27;;
36551;SDS011;22559;54.176;12.102;2023-01-04T06:33:41;8.23;;;4.53;;
36551;SDS011;22559;54.176;12.102;2023-01-04T06:36:07;4.47;;;4.03;;
36551;SDS011;22559;54.176;12.102;2023-01-04T06:38:33;5.60;;;3.97;;
36551;SDS011;22559;54.176;12.102;2023-01-04T06:40:58;3.97;;;3.63;;
36551;SDS011;22559;54.176;12.102;2023-01-04T06:43:24;7.90;;;4.57;;
36551;SDS011;22559;54.176;12.102;2023-01-04T06:45:50;7.30;;;3.50;;
36551;SDS011;22559;54.176;12.102;2023-01-04T06:48:15;5.33;;;3.73;;
36551;SDS011;22559;54.176;12.102;2023-01-04T06:50:41;6.43;;;4.10;;
36551;SDS011;22559;54.176;12.102;2023-01-04T06:53:07;10.40;;;4.00;;
36551;SDS011;22559;54.176;12.102;2023-01-04T06:55:33;6.20;;;4.50;;
36551;SDS011;22559;54.176;12.102;2023-01-04T06:57:59;6.30;;;4.67;;
36551;SDS011;22559;54.176;12.102;2023-01-04T07:00:25;7.70;;;4.17;;
36551;SDS011;22559;54.176;12.102;2023-01-04T07:02:50;7.00;;;4.37;;
36551;SDS011;22559;54.176;12.102;2023-01-04T07:05:16;8.40;;;4.03;;
36551;SDS011;22559;54.176;12.102;2023-01-04T07:07:42;8.73;;;4.50;;
36551;SDS011;22559;54.176;12.102;2023-01-04T07:10:08;6.67;;;4.33;;
36551;SDS011;22559;54.176;12.102;2023-01-04T07:12:34;7.07;;;4.67;;
36551;SDS011;22559;54.176;12.102;2023-01-04T07:15:00;6.60;;;4.17;;
36551;SDS011;22559;54.176;12.102;2023-01-04T07:17:25;9.87;;;4.97;;
36551;SDS011;22559;54.176;12.102;2023-01-04T07:19:51;5.90;;;4.47;;
36551;SDS011;22559;54.176;12.102;2023-01-04T07:22:17;6.73;;;4.77;;
36551;SDS011;22559;54.176;12.102;2023-01-04T07:24:42;7.67;;;5.30;;
36551;SDS011;22559;54.176;12.102;2023-01-04T07:27:09;8.80;;;4.60;;
36551;SDS011;22559;54.176;12.102;2023-01-04T07:29:35;7.33;;;4.40;;
36551;SDS011;22559;54.176;12.102;2023-01-04T07:32:01;6.80;;;4.60;;
36551;SDS011;22559;54.176;12.102;2023-01-04T07:34:26;4.47;;;4.07;;
36551;SDS011;22559;54.176;12.102;2023-01-04T07:36:53;7.47;;;4.07;;
36551;SDS011;22559;54.176;12.102;2023-01-04T07:39:19;7.57;;;4.03;;
36551;SDS011;22559;54.176;12.102;2023-01-04T07:41:46;4.97;;;3.70;;
36551;SDS011;22559;54.176;12.102;2023-01-04T07:44:13;4.80;;;4.30;;
36551;SDS011;22559;54.176;12.102;2023-01-04T07:46:39;7.27;;;3.90;;
36551;SDS011;22559;54.176;12.102;2023-01-04T07:49:08;5.80;;;3.23;;
36551;SDS011;22559;54.176;12.102;2023-01-04T07:51:36;5.57;;;3.53;;
36551;SDS011;22559;54.176;12.102;2023-01-04T07:54:01;5.77;;;3.50;;
36551;SDS011;22559;54.176;12.102;2023-01-04T07:56:27;3.67;;;3.20;;
36551;SDS011;22559;54.176;12.102;2023-01-04T07:58:53;3.20;;;2.83;;
36551;SDS011;22559;54.176;12.102;2023-01-04T08:01:21;4.07;;;3.43;;
36551;SDS011;22559;54.176;12.102;2023-01-04T08:03:48;5.57;;;3.90;;
36551;SDS011;22559;54.176;12.102;2023-01-04T08:06:14;5.07;;;3.07;;
36551;SDS011;22559;54.176;12.102;2023-01-04T08:08:41;3.97;;;3.57;;
36551;SDS011;22559;54.176;12.102;2023-01-04T08:11:08;3.90;;;3.50;;
36551;SDS011;22559;54.176;12.102;2023-01-04T08:13:35;5.17;;;4.17;;
36551;SDS011;22559;54.176;12.102;2023-01-04T08:16:01;4.70;;;3.53;;
36551;SDS011;22559;54.176;12.102;2023-01-04T08:18:27;4.30;;;3.63;;
36551;SDS011;22559;54.176;12.102;2023-01-04T08:21:03;2.90;;;2.70;;
36551;SDS011;22559;54.176;12.102;2023-01-04T08:23:30;5.00;;;4.03;;
36551;SDS011;22559;54.176;12.102;2023-01-04T08:26:01;3.17;;;2.87;;
36551;SDS011;22559;54.176;12.102;2023-01-04T08:28:27;3.53;;;3.23;;
36551;SDS011;22559;54.176;12.102;2023-01-04T08:30:53;3.33;;;3.03;;
36551;SDS011;22559;54.176;12.102;2023-01-04T08:33:18;3.90;;;2.93;;
36551;SDS011;22559;54.176;12.102;2023-01-04T08:35:44;3.40;;;3.10;;
36551;SDS011;22559;54.176;12.102;2023-01-04T08:38:10;3.13;;;2.80;;
36551;SDS011;22559;54.176;12.102;2023-01-04T08:40:36;4.17;;;3.60;;
36551;SDS011;22559;54.176;12.102;2023-01-04T08:43:01;4.23;;;3.23;;
36551;SDS011;22559;54.176;12.102;2023-01-04T08:45:27;3.33;;;2.67;;
36551;SDS011;22559;54.176;12.102;2023-01-04T08:47:53;3.83;;;3.47;;
36551;SDS011;22559;54.176;12.102;2023-01-04T08:50:19;4.07;;;2.60;;
36551;SDS011;22559;54.176;12.102;2023-01-04T08:52:45;3.80;;;3.10;;
36551;SDS011;22559;54.176;12.102;2023-01-04T08:55:11;3.60;;;3.20;;
36551;SDS011;22559;54.176;12.102;2023-01-04T08:57:37;2.33;;;2.23;;
36551;SDS011;22559;54.176;12.102;2023-01-04T09:00:03;3.77;;;2.60;;
36551;SDS011;22559;54.176;12.102;2023-01-04T09:02:30;3.43;;;2.53;;
36551;SDS011;22559;54.176;12.102;2023-01-04T09:04:56;2.40;;;2.20;;
36551;SDS011;22559;54.176;12.102;2023-01-04T09:07:26;3.20;;;2.27;;
36551;SDS011;22559;54.176;12.102;2023-01-04T09:09:53;3.27;;;2.50;;
36551;SDS011;22559;54.176;12.102;2023-01-04T09:12:19;2.60;;;2.40;;
36551;SDS011;22559;54.176;12.102;2023-01-04T09:14:44;2.37;;;2.17;;
36551;SDS011;22559;54.176;12.102;2023-01-04T09:17:10;2.50;;;2.30;;
36551;SDS011;22559;54.176;12.102;2023-01-04T09:19:36;3.03;;;2.43;;
36551;SDS011;22559;54.176;12.102;2023-01-04T09:22:01;2.43;;;2.23;;
36551;SDS011;22559;54.176;12.102;2023-01-04T09:24:27;2.20;;;2.10;;
36551;SDS011;22559;54.176;12.102;2023-01-04T09:26:53;3.03;;;2.60;;
36551;SDS011;22559;54.176;12.102;2023-01-04T09:29:19;2.30;;;2.20;;
36551;SDS011;22559;54.176;12.102;2023-01-04T09:31:45;2.03;;;1.93;;
36551;SDS011;22559;54.176;12.102;2023-01-04T09:34:11;1.90;;;1.80;;
36551;SDS011;22559;54.176;12.102;2023-01-04T09:36:37;1.93;;;1.83;;
36551;SDS011;22559;54.176;12.102;2023-01-04T09:39:03;2.40;;;2.00;;
36551;SDS011;22559;54.176;12.102;2023-01-04T09:41:41;2.00;;;1.90;;
36551;SDS011;22559;54.176;12.102;2023-01-04T09:44:16;2.20;;;2.00;;
36551;SDS011;22559;54.176;12.102;2023-01-04T09:52:26;1.60;;;1.60;;
36551;SDS011;22559;54.176;12.102;2023-01-04T09:55:11;1.90;;;1.80;;
36551;SDS011;22559;54.176;12.102;2023-01-04T09:57:48;3.07;;;2.23;;
36551;SDS011;22559;54.176;12.102;2023-01-04T10:00:24;1.93;;;1.83;;
36551;SDS011;22559;54.176;12.102;2023-01-04T10:03:02;3.07;;;2.10;;
36551;SDS011;22559;54.176;12.102;2023-01-04T10:05:35;2.43;;;2.23;;
36551;SDS011;22559;54.176;12.102;2023-01-04T10:08:01;3.43;;;2.53;;
36551;SDS011;22559;54.176;12.102;2023-01-04T10:13:07;3.83;;;2.00;;
36551;SDS011;22559;54.176;12.102;2023-01-04T10:15:47;1.87;;;1.77;;
36551;SDS011;22559;54.176;12.102;2023-01-04T10:26:16;3.23;;;2.10;;
36551;SDS011;22559;54.176;12.102;2023-01-04T10:31:28;1.90;;;1.80;;
36551;SDS011;22559;54.176;12.102;2023-01-04T10:36:40;2.03;;;1.93;;
36551;SDS011;22559;54.176;12.102;2023-01-04T10:39:12;2.03;;;1.93;;
36551;SDS011;22559;54.176;12.102;2023-01-04T10:41:54;2.10;;;1.73;;
36551;SDS011;22559;54.176;12.102;2023-01-04T10:50:47;1.97;;;1.77;;
36551;SDS011;22559;54.176;12.102;2023-01-04T10:53:31;1.87;;;1.80;;
36551;SDS011;22559;54.176;12.102;2023-01-04T11:01:17;1.90;;;1.80;;
36551;SDS011;22559;54.176;12.102;2023-01-04T11:03:55;2.03;;;1.93;;
36551;SDS011;22559;54.176;12.102;2023-01-04T11:06:32;2.23;;;2.00;;
36551;SDS011;22559;54.176;12.102;2023-01-04T11:09:08;3.20;;;2.10;;
36551;SDS011;22559;54.176;12.102;2023-01-04T11:11:56;2.00;;;1.90;;
36551;SDS011;22559;54.176;12.102;2023-01-04T11:14:23;2.00;;;1.90;;
36551;SDS011;22559;54.176;12.102;2023-01-04T11:16:50;2.70;;;2.07;;
36551;SDS011;22559;54.176;12.102;2023-01-04T11:19:27;2.17;;;2.07;;
36551;SDS011;22559;54.176;12.102;2023-01-04T11:21:58;1.90;;;1.80;;
36551;SDS011;22559;54.176;12.102;2023-01-04T11:24:29;2.10;;;2.00;;
36551;SDS011;22559;54.176;12.102;2023-01-04T11:26:56;2.10;;;1.93;;
36551;SDS011;22559;54.176;12.102;2023-01-04T11:29:40;2.10;;;2.00;;
36551;SDS011;22559;54.176;12.102;2023-01-04T11:32:30;2.10;;;2.00;;
36551;SDS011;22559;54.176;12.102;2023-01-04T11:35:28;1.90;;;1.80;;
36551;SDS011;22559;54.176;12.102;2023-01-04T11:43:40;1.67;;;1.67;;
36551;SDS011;22559;54.176;12.102;2023-01-04T11:46:21;1.70;;;1.60;;
36551;SDS011;22559;54.176;12.102;2023-01-04T11:48:48;1.73;;;1.63;;
36551;SDS011;22559;54.176;12.102;2023-01-04T11:51:17;1.70;;;1.63;;
36551;SDS011;22559;54.176;12.102;2023-01-04T11:54:00;2.00;;;1.90;;
36551;SDS011;22559;54.176;12.102;2023-01-04T11:56:26;1.57;;;1.57;;
36551;SDS011;22559;54.176;12.102;2023-01-04T11:59:27;2.30;;;1.70;;
36551;SDS011;22559;54.176;12.102;2023-01-04T12:01:47;1.40;;;1.40;;
36551;SDS011;22559;54.176;12.102;2023-01-04T12:04:18;1.60;;;1.50;;
36551;SDS011;22559;54.176;12.102;2023-01-04T12:06:49;1.23;;;1.23;;
36551;SDS011;22559;54.176;12.102;2023-01-04T12:09:27;1.80;;;1.70;;
36551;SDS011;22559;54.176;12.102;2023-01-04T12:11:55;1.80;;;1.70;;
36551;SDS011;22559;54.176;12.102;2023-01-04T12:19:41;1.67;;;1.67;;
36551;SDS011;22559;54.176;12.102;2023-01-04T12:25:04;2.70;;;1.53;;
36551;SDS011;22559;54.176;12.102;2023-01-04T12:27:50;1.57;;;1.57;;
36551;SDS011;22559;54.176;12.102;2023-01-04T12:41:23;1.80;;;1.70;;
36551;SDS011;22559;54.176;12.102;2023-01-04T12:43:58;1.77;;;1.67;;
36551;SDS011;22559;54.176;12.102;2023-01-04T12:46:44;1.80;;;1.70;;
36551;SDS011;22559;54.176;12.102;2023-01-04T12:54:48;1.70;;;1.70;;
36551;SDS011;22559;54.176;12.102;2023-01-04T12:59:59;2.00;;;1.80;;
36551;SDS011;22559;54.176;12.102;2023-01-04T13:04:59;1.50;;;1.50;;
36551;SDS011;22559;54.176;12.102;2023-01-04T13:10:35;1.70;;;1.60;;
36551;SDS011;22559;54.176;12.102;2023-01-04T13:15:44;1.83;;;1.73;;
36551;SDS011;22559;54.176;12.102;2023-01-04T13:23:48;1.83;;;1.73;;
36551;SDS011;22559;54.176;12.102;2023-01-04T13:29:14;2.80;;;1.70;;
36551;SDS011;22559;54.176;12.102;2023-01-04T13:39:36;1.67;;;1.63;;
36551;SDS011;22559;54.176;12.102;2023-01-04T13:42:04;1.53;;;1.50;;
36551;SDS011;22559;54.176;12.102;2023-01-04T13:47:23;1.33;;;1.23;;
36551;SDS011;22559;54.176;12.102;2023-01-04T13:49:49;1.60;;;1.50;;
36551;SDS011;22559;54.176;12.102;2023-01-04T13:54:47;2.10;;;2.00;;
36551;SDS011;22559;54.176;12.102;2023-01-04T13:57:17;1.83;;;1.83;;
36551;SDS011;22559;54.176;12.102;2023-01-04T13:59:49;1.53;;;1.53;;
36551;SDS011;22559;54.176;12.102;2023-01-04T14:02:16;1.53;;;1.53;;
36551;SDS011;22559;54.176;12.102;2023-01-04T14:04:46;1.50;;;1.50;;
36551;SDS011;22559;54.176;12.102;2023-01-04T14:07:20;1.50;;;1.50;;
36551;SDS011;22559;54.176;12.102;2023-01-04T14:09:49;2.33;;;1.90;;
36551;SDS011;22559;54.176;12.102;2023-01-04T14:12:22;3.17;;;1.53;;
36551;SDS011;22559;54.176;12.102;2023-01-04T14:20:02;4.30;;;2.10;;
36551;SDS011;22559;54.176;12.102;2023-01-04T14:22:33;3.20;;;2.67;;
36551;SDS011;22559;54.176;12.102;2023-01-04T14:25:28;3.00;;;1.67;;
36551;SDS011;22559;54.176;12.102;2023-01-04T14:28:15;1.83;;;1.57;;
36551;SDS011;22559;54.176;12.102;2023-01-04T14:30:47;4.67;;;1.87;;
36551;SDS011;22559;54.176;12.102;2023-01-04T14:33:21;3.83;;;1.83;;
36551;SDS011;22559;54.176;12.102;2023-01-04T14:38:36;1.80;;;1.50;;
36551;SDS011;22559;54.176;12.102;2023-01-04T14:41:10;2.00;;;1.80;;
36551;SDS011;22559;54.176;12.102;2023-01-04T14:43:48;1.83;;;1.70;;
36551;SDS011;22559;54.176;12.102;2023-01-04T14:46:17;2.43;;;2.23;;
36551;SDS011;22559;54.176;12.102;2023-01-04T14:48:44;2.17;;;1.90;;
36551;SDS011;22559;54.176;12.102;2023-01-04T14:51:11;1.80;;;1.70;;
36551;SDS011;22559;54.176;12.102;2023-01-04T14:53:43;1.70;;;1.57;;
36551;SDS011;22559;54.176;12.102;2023-01-04T14:56:12;3.70;;;2.00;;
36551;SDS011;22559;54.176;12.102;2023-01-04T14:58:39;3.13;;;2.10;;
36551;SDS011;22559;54.176;12.102;2023-01-04T15:01:05;1.67;;;1.57;;
36551;SDS011;22559;54.176;12.102;2023-01-04T15:03:30;1.97;;;1.50;;
36551;SDS011;22559;54.176;12.102;2023-01-04T15:05:56;2.00;;;1.90;;
36551;SDS011;22559;54.176;12.102;2023-01-04T15:08:21;1.87;;;1.60;;
36551;SDS011;22559;54.176;12.102;2023-01-04T15:10:47;1.70;;;1.60;;
36551;SDS011;22559;54.176;12.102;2023-01-04T15:13:13;2.17;;;1.97;;
36551;SDS011;22559;54.176;12.102;2023-01-04T15:15:39;1.90;;;1.70;;
36551;SDS011;22559;54.176;12.102;2023-01-04T15:18:06;3.37;;;2.10;;
36551;SDS011;22559;54.176;12.102;2023-01-04T15:20:32;3.83;;;1.70;;
36551;SDS011;22559;54.176;12.102;2023-01-04T15:22:58;3.20;;;2.10;;
36551;SDS011;22559;54.176;12.102;2023-01-04T15:25:23;2.03;;;1.83;;
36551;SDS011;22559;54.176;12.102;2023-01-04T15:27:51;5.03;;;2.20;;
36551;SDS011;22559;54.176;12.102;2023-01-04T15:30:17;4.73;;;2.60;;
36551;SDS011;22559;54.176;12.102;2023-01-04T15:32:42;3.10;;;1.77;;
36551;SDS011;22559;54.176;12.102;2023-01-04T15:35:08;3.83;;;1.83;;
36551;SDS011;22559;54.176;12.102;2023-01-04T15:37:40;2.47;;;1.83;;
36551;SDS011;22559;54.176;12.102;2023-01-04T15:40:05;11.03;;;4.90;;
36551;SDS011;22559;54.176;12.102;2023-01-04T15:42:31;3.70;;;2.00;;
36551;SDS011;22559;54.176;12.102;2023-01-04T15:45:16;10.83;;;6.30;;
36551;SDS011;22559;54.176;12.102;2023-01-04T15:47:42;5.10;;;2.00;;
36551;SDS011;22559;54.176;12.102;2023-01-04T15:50:07;8.00;;;3.90;;
36551;SDS011;22559;54.176;12.102;2023-01-04T15:52:33;16.00;;;8.23;;
36551;SDS011;22559;54.176;12.102;2023-01-04T15:54:59;21.83;;;10.50;;
36551;SDS011;22559;54.176;12.102;2023-01-04T15:57:24;11.00;;;6.57;;
36551;SDS011;22559;54.176;12.102;2023-01-04T15:59:50;5.00;;;2.13;;
36551;SDS011;22559;54.176;12.102;2023-01-04T16:02:16;3.23;;;1.80;;
36551;SDS011;22559;54.176;12.102;2023-01-04T16:04:42;2.70;;;1.70;;
36551;SDS011;22559;54.176;12.102;2023-01-04T16:07:09;4.47;;;2.30;;
36551;SDS011;22559;54.176;12.102;2023-01-04T16:09:35;9.33;;;2.20;;
36551;SDS011;22559;54.176;12.102;2023-01-04T16:12:02;5.97;;;2.50;;
36551;SDS011;22559;54.176;12.102;2023-01-04T16:14:46;4.90;;;2.30;;
36551;SDS011;22559;54.176;12.102;2023-01-04T16:17:12;4.10;;;2.20;;
36551;SDS011;22559;54.176;12.102;2023-01-04T16:19:37;4.90;;;2.60;;
36551;SDS011;22559;54.176;12.102;2023-01-04T16:22:03;7.07;;;2.60;;
36551;SDS011;22559;54.176;12.102;2023-01-04T16:24:29;8.63;;;2.70;;
36551;SDS011;22559;54.176;12.102;2023-01-04T16:26:54;6.83;;;2.67;;
36551;SDS011;22559;54.176;12.102;2023-01-04T16:29:20;6.83;;;2.53;;
36551;SDS011;22559;54.176;12.102;2023-01-04T16:31:46;7.63;;;4.07;;
36551;SDS011;22559;54.176;12.102;2023-01-04T16:34:12;8.43;;;4.00;;
36551;SDS011;22559;54.176;12.102;2023-01-04T16:36:38;5.13;;;3.70;;
36551;SDS011;22559;54.176;12.102;2023-01-04T16:39:04;6.67;;;2.93;;
36551;SDS011;22559;54.176;12.102;2023-01-04T16:41:30;10.83;;;3.50;;
36551;SDS011;22559;54.176;12.102;2023-01-04T16:43:57;7.83;;;2.93;;
36551;SDS011;22559;54.176;12.102;2023-01-04T16:46:28;4.83;;;3.20;;
36551;SDS011;22559;54.176;12.102;2023-01-04T16:48:56;7.20;;;3.43;;
36551;SDS011;22559;54.176;12.102;2023-01-04T16:51:24;7.67;;;3.07;;
36551;SDS011;22559;54.176;12.102;2023-01-04T16:53:51;10.10;;;3.63;;
36551;SDS011;22559;54.176;12.102;2023-01-04T16:56:18;9.83;;;3.27;;
36551;SDS011;22559;54.176;12.102;2023-01-04T16:58:45;4.80;;;2.80;;
36551;SDS011;22559;54.176;12.102;2023-01-04T17:01:19;7.90;;;3.10;;
36551;SDS011;22559;54.176;12.102;2023-01-04T17:03:46;6.73;;;2.60;;
36551;SDS011;22559;54.176;12.102;2023-01-04T17:08:38;5.80;;;2.60;;
36551;SDS011;22559;54.176;12.102;2023-01-04T17:11:05;9.97;;;2.40;;
36551;SDS011;22559;54.176;12.102;2023-01-04T17:13:38;6.87;;;3.13;;